普天間飛行場の過去48時間の天気

普天間飛行場 (Futema)

現在時刻: 1/22 03:07 JST (1/21 18:07 UTC) 以下の時間は現地時間です。

過去48時間のMETAR気象情報
時間 風向 風速(m/s) 視程 気温(℃) 湿度(%) 気圧(hPa) 天気現象
22 02:49 東南東 4 10km以上 18.9 - 1013
22 02:28 東南東 5 10km以上 19.4 - 1013
22 02:19 東南東 5 10km以上 19.4 - 1013 弱い雨
22 02:09 東南東 6 10km以上 19.4 - 1013
22 01:56 東南東 5 10km以上 19.4 - 1011.8
22 01:44 東南東 6 10km以上 19.4 - 1013
22 01:37 東南東 5 10km以上 19.4 - 1013
22 00:56 4 10km以上 19.4 - 1012.4
21 23:56 東南東 4 10km以上 19.4 - 1012.9 弱い雨
21 22:56 東南東 6 10km以上 19.4 - 1013.4
21 21:56 6 10km以上 19.4 - 1013.9
21 20:56 4 10km以上 19.4 - 1014.4
21 19:56 東北東 6 10km以上 18.9 - 1014.2
21 18:56 東北東 3 10km以上 18.9 87 1014.5
21 17:56 4 10km以上 19.4 81 1014.2
21 16:56 5 10km以上 20 78 1014
21 15:56 東北東 4 10km以上 20 78 1013.8
21 14:56 5 10km以上 20 76 1013.6
21 13:56 東北東 5 10km以上 20.6 73 1013.7
21 12:56 5 10km以上 20.6 73 1015
21 11:56 北東 4 10km以上 20.6 75 1016.7
21 10:56 北東 5 10km以上 21.1 76 1017.3
21 08:56 北東 3 10km以上 18.3 - 1017.4
21 06:56 東北東 4 10km以上 16.7 - 1016.6
21 05:56 北東 3 10km以上 16.1 - 1015.9
21 04:56 北北東 2 10km以上 15.6 - 1015.8
21 03:56 東北東 3 10km以上 16.1 - 1015.8
21 02:56 東北東 3 10km以上 16.7 - 1016
21 01:56 北東 3 10km以上 17.2 - 1016.3
21 00:56 北北東 2 10km以上 17.2 - 1016.7
21 00:04 北北東 3 10km以上 17.8 - 1018
20 22:56 東北東 3 10km以上 18.3 - 1017
20 21:56 東北東 3 10km以上 17.8 84 1017.3
20 19:56 北東 3 10km以上 18.3 78 1017
20 18:56 北北東 3 10km以上 18.9 75 1016.5
20 17:56 北東 4 10km以上 18.9 75 1015.6
20 16:56 東北東 4 10km以上 19.4 73 1015.3
20 15:56 5 10km以上 20 70 1014.9
20 14:56 東北東 4 10km以上 20.6 68 1014.8
20 13:56 東北東 5 10km以上 20 68 1015.2
20 11:56 東北東 5 10km以上 20 73 1017
20 10:56 北東 5 10km以上 18.4 78 1017.5
20 09:56 東北東 4 10km以上 18.3 - 1018.2
20 08:56 3 10km以上 17.8 - 1017.9
20 06:56 5 10km以上 16.7 - 1016.7
20 05:56 4 10km以上 16.1 - 1016.7
20 04:56 5 10km以上 15.6 - 1016.1
20 04:30 4 10km以上 15.6 - 1018
ROTM 211749Z AUTO 12008KT 8SM SCT009 BKN016 OVC070 19/ A2991 RMK AO2 RAB15E23 P0000 T0189 $
ROTM 211728Z AUTO 12009KT 7SM BKN009 OVC014 19/ A2991 RMK AO2 RAB15E23 CIG 007V011 P0000 T0194 $
ROTM 211719Z AUTO 11009KT 7SM -RA SCT009 BKN012 OVC020 19/ A2991 RMK AO2 RAB15 P0000 T0194 $
ROTM 211709Z AUTO 12011KT 8SM SCT014 BKN019 OVC085 19/ A2991 RMK AO2 T0194 $
ROTM 211656Z AUTO 11010KT 9SM FEW012 SCT020 OVC085 19/ A2992 RMK AO2 SLP118 T0194 $
ROTM 211644Z AUTO 11011KT 9SM FEW014 SCT018 OVC085 19/ A2992 RMK AO2 T0194 $
ROTM 211637Z AUTO 11009KT 9SM BKN015 OVC090 19/ A2992 RMK AO2 T0194 $
ROTM 211556Z AUTO 09007KT 9SM OVC100 19/ A2994 RMK AO2 RAE36 SLP124 P0001 T0194 $
ROTM 211456Z AUTO 11008KT 8SM -RA OVC110 19/ A2995 RMK AO2 RAB25 SLP129 P0001 60001 T0194 402110156 58015 $
ROTM 211356Z AUTO 11012KT 10SM FEW055 BKN085 OVC110 19/ A2997 RMK AO2 SLP134 T0194 $
ROTM 211256Z AUTO 09011KT 10SM OVC046 19/ A2998 RMK AO2 SLP139 T0194 $
ROTM 211156Z AUTO 08008KT 10SM BKN039 BKN110 19/ A2999 RMK AO2 SLP144 T0194 10206 20189 51003 $
ROTM 211056Z AUTO 06011KT 10SM FEW023 SCT028 BKN110 19/ A2999 RMK AO2 SLP142 T0189 $
ROTM 210956Z AUTO 06006KT 10SM FEW020 SCT025 OVC110 19/17 A3000 RMK AO2 SLP145 T01890167 $
ROTM 210856Z AUTO 08008KT 9SM FEW023 FEW090 BKN110 19/16 A2999 RMK AO2 SLP142 T01940161 51005 $
ROTM 210756Z AUTO 08009KT 9SM SCT023 OVC085 20/16 A2998 RMK AO2 SLP140 T02000161 $
ROTM 210656Z AUTO 07008KT 9SM BKN090 BKN110 20/16 A2998 RMK AO2 SLP138 T02000161 $
ROTM 210556Z AUTO 08009KT 10SM FEW023 OVC100 20/16 A2997 RMK AO2 SLP136 T02000156 10211 20183 56031 $
ROTM 210456Z AUTO 07010KT 10SM SCT110 21/16 A2997 RMK AO2 SLP137 T02060156 $
ROTM 210356Z AUTO 08009KT 10SM SCT024 BKN120 21/16 A3001 RMK AO2 SLP150 T02060156 $
ROTM 210256Z AUTO 05007KT 10SM CLR 21/16 A3006 RMK AO2 SLP167 T02060161 58007 $
ROTM 210156Z AUTO 05010KT 10SM FEW020 21/17 A3008 RMK AO2 SLP173 T02110167 $
ROTM 202356Z AUTO 05006KT 8SM CLR 18/ A3008 RMK AO2 SLP174 T0183 10183 20156 51016 $
ROTM 202156Z AUTO 07007KT 9SM CLR 17/ A3006 RMK AO2 SLP166 T0167 $
ROTM 202056Z AUTO 05006KT 9SM CLR 16/ A3004 RMK AO2 SLP159 T0161 55001 $
ROTM 201956Z AUTO 03003KT 8SM CLR 16/ A3003 RMK AO2 SLP158 T0156 $
ROTM 201856Z AUTO 06005KT 8SM FEW095 16/ A3004 RMK AO2 SLP158 T0161 $
ROTM 201756Z AUTO 06005KT 9SM FEW100 17/ A3004 RMK AO2 SLP160 T0167 10183 20167 58008 $
ROTM 201656Z AUTO 05006KT 9SM BKN080 17/ A3005 RMK AO2 SLP163 T0172 $
ROTM 201556Z AUTO 02004KT 9SM SCT023 BKN100 17/ A3006 RMK AO2 SLP167 T0172 $
ROTM 201504Z AUTO 03005KT 10SM BKN022 OVC100 18/ A3007 RMK AO2 T0178 $
ROTM 201356Z AUTO 07006KT 10SM OVC065 18/ A3007 RMK AO2 SLP170 T0183 $
ROTM 201256Z AUTO 06006KT 10SM OVC055 18/15 A3008 RMK AO2 SLP173 T01780150 $
ROTM 201056Z AUTO 05006KT 10SM OVC049 18/14 A3007 RMK AO2 SLP170 T01830144 $
ROTM 200956Z AUTO 03006KT 10SM OVC036 19/14 A3006 RMK AO2 SLP165 T01890144 $
ROTM 200856Z 05007KT 10SM BKN035 BKN050 19/14 A3003 RMK AO2 SLP156 STNPR29730 T01890144 53007 $
ROTM 200756Z 06008KT 10SM SCT035 OVC046 19/14 A3002 RMK AO2 SLP153 STNPR29715 T01940144 $
ROTM 200656Z 08009KT 10SM FEW033 OVC047 20/14 A3001 RMK AO2 SLP149 STNPR29710 T02000144 $
ROTM 200556Z 06008KT 10SM OVC048 21/14 A3001 RMK AO2 SLP148 STNPR29710 T02060144 10206 20178 56022 $
ROTM 200456Z COR 06010KT 10SM SCT050 BKN120 20/14 A3002 RMK SLP152 STNPR29720 T02000139
ROTM 200256Z 07009KT 10SM BKN048 20/15 A3007 RMK AO2 SLP170 STNPR29775 T02000150 58007 $
ROTM 200156Z 05009KT 10SM BKN050 18/14 A3008 RMK SLP175 STNPR29800 T01840144
ROTM 200056Z AUTO 06007KT 10SM FEW039 OVC050 18/ A3011 RMK AO2 SLP182 T0183 $
ROTM 192356Z AUTO 09006KT 10SM OVC044 18/ A3010 RMK AO2 SLP179 60003 T0178 10178 20150 53012 $
ROTM 192156Z AUTO 10010KT 10SM OVC048 17/ A3006 RMK AO2 SLP167 T0167 $
ROTM 192056Z AUTO 08007KT 10SM OVC048 16/ A3006 RMK AO2 SLP167 60003 T0161 55002 $
ROTM 191956Z AUTO 08009KT 10SM BKN036 OVC046 16/ A3004 RMK AO2 RAB09E25 SLP161 P0001 T0156 $
ROTM 191930Z AUTO 08007KT 8SM FEW020 BKN039 OVC047 16/ A3005 RMK AO2 RAB09E25 P0001 T0156 $